createdAt,value
2018-08-30T00:01:15.419Z,19.50
2018-08-30T00:03:44.839Z,19.60
2018-08-30T00:06:13.318Z,19.50
2018-08-30T00:08:41.850Z,19.50
2018-08-30T00:11:10.295Z,19.40
2018-08-30T00:13:38.763Z,19.40
2018-08-30T00:16:07.255Z,19.40
2018-08-30T00:18:35.694Z,19.50
2018-08-30T00:21:04.291Z,19.50
2018-08-30T00:23:32.806Z,19.50
2018-08-30T00:26:01.274Z,19.50
2018-08-30T00:28:29.824Z,19.30
2018-08-30T00:30:58.385Z,19.20
2018-08-30T00:33:26.821Z,19.20
2018-08-30T00:35:55.292Z,19.20
2018-08-30T00:38:23.753Z,19.20
2018-08-30T00:40:52.263Z,19.10
2018-08-30T00:43:20.708Z,19.20
2018-08-30T00:45:49.207Z,19.00
2018-08-30T00:48:17.649Z,19.00
2018-08-30T00:50:46.156Z,18.80
2018-08-30T00:53:14.612Z,18.70
2018-08-30T00:55:43.115Z,19.00
2018-08-30T00:58:11.574Z,18.90
2018-08-30T01:00:40.107Z,18.80
2018-08-30T01:03:08.581Z,18.60
2018-08-30T01:05:37.063Z,18.60
2018-08-30T01:08:05.641Z,18.50
2018-08-30T01:10:34.175Z,18.40
2018-08-30T01:13:02.649Z,18.30
2018-08-30T01:15:31.198Z,18.20
2018-08-30T01:17:59.734Z,18.10
2018-08-30T01:20:28.228Z,18.10
2018-08-30T01:22:56.775Z,18.30
2018-08-30T01:25:25.253Z,18.50
2018-08-30T01:27:53.835Z,18.40
2018-08-30T01:30:22.410Z,18.30
2018-08-30T01:32:50.910Z,18.10
2018-08-30T01:35:19.448Z,18.10
2018-08-30T01:37:47.933Z,18.10
2018-08-30T01:40:16.375Z,18.00
2018-08-30T01:42:44.947Z,18.10
2018-08-30T01:45:13.511Z,18.00
2018-08-30T01:47:41.964Z,17.90
2018-08-30T01:50:10.469Z,17.80
2018-08-30T01:52:38.937Z,17.80
2018-08-30T01:55:07.456Z,17.90
2018-08-30T01:57:35.944Z,17.90
2018-08-30T02:00:04.488Z,17.80
2018-08-30T02:02:32.930Z,17.70
2018-08-30T02:05:01.526Z,17.70
2018-08-30T02:07:30.004Z,17.70
2018-08-30T02:09:58.486Z,17.70
2018-08-30T02:12:26.943Z,17.70
2018-08-30T02:14:55.556Z,17.90
2018-08-30T02:17:24.048Z,17.80
2018-08-30T02:19:53.521Z,17.90
2018-08-30T02:22:21.958Z,17.80
2018-08-30T02:24:50.419Z,17.90
2018-08-30T02:27:18.923Z,17.90
2018-08-30T02:29:47.402Z,17.80
2018-08-30T02:32:15.909Z,17.80
2018-08-30T02:34:44.334Z,17.60
2018-08-30T02:37:12.860Z,17.50
2018-08-30T02:39:41.359Z,17.70
2018-08-30T02:42:09.876Z,17.50
2018-08-30T02:44:38.316Z,17.60
2018-08-30T02:47:07.250Z,17.50
2018-08-30T02:49:35.695Z,17.60
2018-08-30T02:52:04.208Z,17.60
2018-08-30T02:54:32.943Z,17.60
2018-08-30T02:57:01.486Z,17.50
2018-08-30T02:59:29.984Z,17.60
2018-08-30T03:01:58.831Z,17.60
2018-08-30T03:04:27.361Z,17.60
2018-08-30T03:06:55.835Z,17.70
2018-08-30T03:09:24.414Z,17.60
2018-08-30T03:11:52.883Z,17.60
2018-08-30T03:14:21.439Z,17.40
2018-08-30T03:16:50.827Z,17.30
2018-08-30T03:19:19.407Z,17.30
2018-08-30T03:21:47.969Z,17.30
2018-08-30T03:24:16.413Z,17.40
2018-08-30T03:26:44.947Z,17.50
2018-08-30T03:29:13.459Z,17.50
2018-08-30T03:31:41.943Z,17.50
2018-08-30T03:34:10.378Z,17.60
2018-08-30T03:36:38.868Z,17.50
2018-08-30T03:39:07.609Z,17.60
2018-08-30T03:41:36.155Z,17.50
2018-08-30T03:44:04.640Z,17.60
2018-08-30T03:46:33.164Z,17.40
2018-08-30T03:49:01.697Z,17.20
2018-08-30T03:51:30.203Z,17.00
2018-08-30T03:53:58.695Z,17.00
2018-08-30T03:56:27.199Z,17.00
2018-08-30T03:58:55.656Z,17.10
2018-08-30T04:01:24.106Z,17.20
2018-08-30T04:03:52.639Z,17.10
2018-08-30T04:06:21.322Z,17.10
2018-08-30T04:08:49.891Z,17.10
2018-08-30T04:11:18.333Z,17.10
2018-08-30T04:13:46.849Z,17.20
2018-08-30T04:16:15.299Z,17.20
2018-08-30T04:18:43.883Z,17.10
2018-08-30T04:21:12.319Z,17.10
2018-08-30T04:23:40.833Z,17.00
2018-08-30T04:26:09.266Z,17.00
2018-08-30T04:28:37.779Z,16.90
2018-08-30T04:31:06.215Z,17.00
2018-08-30T04:33:34.724Z,17.00
2018-08-30T04:36:03.219Z,17.10
2018-08-30T04:38:31.715Z,17.10
2018-08-30T04:41:00.203Z,17.00
2018-08-30T04:43:28.640Z,16.90
2018-08-30T04:45:57.101Z,16.90
2018-08-30T04:48:25.576Z,16.90
2018-08-30T04:50:54.081Z,17.00
2018-08-30T04:53:22.582Z,17.00
2018-08-30T04:55:51.098Z,16.90
2018-08-30T04:58:19.543Z,17.00
2018-08-30T05:00:48.041Z,17.00
2018-08-30T05:03:16.471Z,17.10
2018-08-30T05:05:44.963Z,17.20
2018-08-30T05:08:13.404Z,17.20
2018-08-30T05:10:42.005Z,17.20
2018-08-30T05:13:10.479Z,17.10
2018-08-30T05:15:38.955Z,17.10
2018-08-30T05:18:07.496Z,17.00
2018-08-30T05:20:36.287Z,17.10
2018-08-30T05:23:05.059Z,17.10
2018-08-30T05:25:33.571Z,17.00
2018-08-30T05:28:02.031Z,17.00
2018-08-30T05:30:30.531Z,16.90
2018-08-30T05:32:59.035Z,17.00
2018-08-30T05:35:27.823Z,17.00
2018-08-30T05:37:56.322Z,16.80
2018-08-30T05:40:24.799Z,16.90
2018-08-30T05:42:53.284Z,17.00
2018-08-30T05:45:21.820Z,16.90
2018-08-30T05:47:50.340Z,16.80
2018-08-30T05:50:18.860Z,16.80
2018-08-30T05:52:47.306Z,16.80
2018-08-30T05:55:15.834Z,16.90
2018-08-30T05:57:44.280Z,17.10
2018-08-30T06:00:13.062Z,17.10
2018-08-30T06:02:41.560Z,17.20
2018-08-30T06:05:10.110Z,17.00
2018-08-30T06:07:38.605Z,17.10
2018-08-30T06:10:07.232Z,17.00
2018-08-30T06:12:35.672Z,17.10
2018-08-30T06:15:04.255Z,17.10
2018-08-30T06:17:32.828Z,17.20
2018-08-30T06:20:01.349Z,17.30
2018-08-30T06:22:29.870Z,17.40
2018-08-30T06:24:58.331Z,17.50
2018-08-30T06:27:26.832Z,17.30
2018-08-30T06:29:55.331Z,17.40
2018-08-30T06:32:24.190Z,17.30
2018-08-30T06:34:52.800Z,17.40
2018-08-30T06:37:21.317Z,17.40
2018-08-30T06:39:50.055Z,17.40
2018-08-30T06:42:18.537Z,17.40
2018-08-30T06:44:47.320Z,17.40
2018-08-30T06:47:16.629Z,17.50
2018-08-30T06:49:45.100Z,17.60
2018-08-30T06:52:13.598Z,17.60
2018-08-30T06:54:42.117Z,17.70
2018-08-30T06:57:10.606Z,17.70
2018-08-30T06:59:39.092Z,17.70
2018-08-30T07:02:07.545Z,17.70
2018-08-30T07:04:36.071Z,17.80
2018-08-30T07:07:04.583Z,17.80
2018-08-30T07:09:33.087Z,17.90
2018-08-30T07:12:01.623Z,18.00
2018-08-30T07:14:30.093Z,17.90
2018-08-30T07:16:58.640Z,17.80
2018-08-30T07:19:27.220Z,17.90
2018-08-30T07:21:55.740Z,17.90
2018-08-30T07:24:24.279Z,18.10
2018-08-30T07:26:52.718Z,18.20
2018-08-30T07:29:21.199Z,18.30
2018-08-30T07:31:49.646Z,18.40
2018-08-30T07:34:18.284Z,18.50
2018-08-30T07:36:46.639Z,18.50
2018-08-30T07:39:15.138Z,18.50
2018-08-30T07:41:43.630Z,18.40
2018-08-30T07:44:12.746Z,18.50
2018-08-30T07:46:41.099Z,18.30
2018-08-30T07:49:10.518Z,18.40
2018-08-30T07:51:39.000Z,18.30
2018-08-30T07:54:08.111Z,18.30
2018-08-30T07:56:36.858Z,18.40
2018-08-30T07:59:05.400Z,18.50
2018-08-30T08:01:33.879Z,18.60
2018-08-30T08:04:02.402Z,18.30
2018-08-30T08:06:30.964Z,18.30
2018-08-30T08:08:59.499Z,18.20
2018-08-30T08:11:28.098Z,18.40
2018-08-30T08:13:56.545Z,18.30
2018-08-30T08:16:25.051Z,18.50
2018-08-30T08:18:53.598Z,18.60
2018-08-30T08:21:22.076Z,18.70
2018-08-30T08:23:50.510Z,18.80
2018-08-30T08:26:19.035Z,18.70
2018-08-30T08:28:47.483Z,18.90
2018-08-30T08:31:16.011Z,18.80
2018-08-30T08:33:44.516Z,18.90
2018-08-30T08:36:12.994Z,18.80
2018-08-30T08:38:41.519Z,18.60
2018-08-30T08:41:16.484Z,18.70
2018-08-30T08:43:45.002Z,18.40
2018-08-30T08:46:13.498Z,18.70
2018-08-30T08:48:42.037Z,19.00
2018-08-30T08:51:10.678Z,19.50
2018-08-30T08:53:39.468Z,19.80
2018-08-30T08:56:07.975Z,19.50
2018-08-30T08:58:36.522Z,19.50
2018-08-30T09:01:05.123Z,19.70
2018-08-30T09:03:33.577Z,19.90
2018-08-30T09:06:02.045Z,19.90
2018-08-30T09:08:30.626Z,19.60
2018-08-30T09:10:59.099Z,19.60
2018-08-30T09:13:27.617Z,19.50
2018-08-30T09:15:56.108Z,19.40
2018-08-30T09:18:24.659Z,19.00
2018-08-30T09:20:53.187Z,19.30
2018-08-30T09:23:21.711Z,19.50
2018-08-30T09:25:50.186Z,19.60
2018-08-30T09:28:18.960Z,19.70
2018-08-30T09:30:47.506Z,19.70
2018-08-30T09:33:16.012Z,19.80
2018-08-30T09:35:44.462Z,19.80
2018-08-30T09:38:12.983Z,20.20
2018-08-30T09:40:41.484Z,20.20
2018-08-30T09:43:09.980Z,20.10
2018-08-30T09:45:38.518Z,20.20
2018-08-30T09:48:07.002Z,20.20
2018-08-30T09:50:35.700Z,20.30
2018-08-30T09:53:04.350Z,20.00
2018-08-30T09:55:32.900Z,19.90
2018-08-30T09:58:01.410Z,20.00
2018-08-30T10:00:35.128Z,20.00
2018-08-30T10:03:03.648Z,20.20
2018-08-30T10:05:32.123Z,20.10
2018-08-30T10:08:00.642Z,20.10
2018-08-30T10:10:29.156Z,20.20
2018-08-30T10:12:57.703Z,20.90
2018-08-30T10:15:26.171Z,21.20
2018-08-30T10:17:54.749Z,21.80
2018-08-30T10:20:23.334Z,21.80
2018-08-30T10:22:51.911Z,21.80
2018-08-30T10:25:20.459Z,22.00
2018-08-30T10:27:48.976Z,21.90
2018-08-30T10:30:17.509Z,22.00
2018-08-30T10:32:46.015Z,22.00
2018-08-30T10:35:14.546Z,21.80
2018-08-30T10:37:43.067Z,21.60
2018-08-30T10:40:11.626Z,21.80
2018-08-30T10:42:40.138Z,21.30
2018-08-30T10:45:08.658Z,21.30
2018-08-30T10:47:37.260Z,21.30
2018-08-30T10:50:06.029Z,21.30
2018-08-30T10:52:34.822Z,21.40
2018-08-30T10:55:03.339Z,21.20
2018-08-30T10:57:31.867Z,21.40
2018-08-30T11:00:00.314Z,21.50
2018-08-30T11:02:28.983Z,21.50
2018-08-30T11:04:57.567Z,21.40
2018-08-30T11:07:26.145Z,21.30
2018-08-30T11:09:55.418Z,21.40
2018-08-30T11:12:23.964Z,21.00
2018-08-30T11:14:52.454Z,21.00
2018-08-30T11:17:20.947Z,21.00
2018-08-30T11:19:49.715Z,20.90
2018-08-30T11:22:18.209Z,20.50
2018-08-30T11:24:46.662Z,20.50
2018-08-30T11:27:15.143Z,20.80
2018-08-30T11:29:43.623Z,20.70
2018-08-30T11:32:12.062Z,20.70
2018-08-30T11:34:40.533Z,20.60
2018-08-30T11:37:09.038Z,20.60
2018-08-30T11:39:37.506Z,20.90
2018-08-30T11:42:06.060Z,21.00
2018-08-30T11:44:34.552Z,21.40
2018-08-30T11:47:03.010Z,22.00
2018-08-30T11:49:31.531Z,22.10
2018-08-30T11:52:00.068Z,22.50
2018-08-30T11:54:28.564Z,23.10
2018-08-30T11:56:57.020Z,23.40
2018-08-30T11:59:25.543Z,23.60
2018-08-30T12:01:54.089Z,23.30
2018-08-30T12:04:22.650Z,23.00
2018-08-30T12:06:51.236Z,22.70
2018-08-30T12:09:19.740Z,22.50
2018-08-30T12:11:48.385Z,22.50
2018-08-30T12:14:16.939Z,22.80
2018-08-30T12:16:45.437Z,23.30
2018-08-30T12:19:13.966Z,23.80
2018-08-30T12:21:42.424Z,23.90
2018-08-30T12:24:11.216Z,23.70
2018-08-30T12:26:39.895Z,23.80
2018-08-30T12:29:08.502Z,23.90
2018-08-30T12:31:37.072Z,23.70
2018-08-30T12:34:05.853Z,23.50
2018-08-30T12:36:34.315Z,23.60
2018-08-30T12:39:02.969Z,23.60
2018-08-30T12:41:31.489Z,23.60
2018-08-30T12:44:00.137Z,23.60
2018-08-30T12:46:28.523Z,23.60
2018-08-30T12:48:56.977Z,23.40
2018-08-30T12:51:25.713Z,23.40
2018-08-30T12:53:54.126Z,23.30
2018-08-30T12:56:22.685Z,23.10
2018-08-30T12:58:55.350Z,23.50
2018-08-30T13:01:23.886Z,23.30
2018-08-30T13:03:52.417Z,23.70
2018-08-30T13:06:20.934Z,23.50
2018-08-30T13:08:49.558Z,23.30
2018-08-30T13:11:18.148Z,23.20
2018-08-30T13:13:46.634Z,23.30
2018-08-30T13:16:15.176Z,23.20
2018-08-30T13:18:43.537Z,23.20
2018-08-30T13:21:12.226Z,23.10
2018-08-30T13:23:40.946Z,23.20
2018-08-30T13:26:09.264Z,22.70
2018-08-30T13:28:37.749Z,22.50
2018-08-30T13:31:06.645Z,22.50
2018-08-30T13:33:35.422Z,22.80
2018-08-30T13:36:04.329Z,23.20
2018-08-30T13:38:32.895Z,23.20
2018-08-30T13:41:01.510Z,23.10
2018-08-30T13:43:29.872Z,23.00
2018-08-30T13:45:59.245Z,23.00
2018-08-30T13:48:27.787Z,23.10
2018-08-30T13:50:56.377Z,22.90
2018-08-30T13:53:24.936Z,22.60
2018-08-30T13:55:53.439Z,22.40
2018-08-30T13:58:22.213Z,22.40
2018-08-30T14:00:51.082Z,22.40
2018-08-30T14:03:19.158Z,22.70
2018-08-30T14:05:47.575Z,23.10
2018-08-30T14:08:15.992Z,23.30
2018-08-30T14:10:44.779Z,23.60
2018-08-30T14:13:13.301Z,23.60
2018-08-30T14:15:41.540Z,23.80
2018-08-30T14:18:10.283Z,23.70
2018-08-30T14:20:38.661Z,23.70
2018-08-30T14:23:07.274Z,23.60
2018-08-30T14:25:35.782Z,23.40
2018-08-30T14:28:04.323Z,23.10
2018-08-30T14:30:32.868Z,23.10
2018-08-30T14:33:01.404Z,23.10
2018-08-30T14:35:29.844Z,23.30
2018-08-30T14:37:58.380Z,23.20
2018-08-30T14:40:28.400Z,23.20
2018-08-30T14:42:56.888Z,23.20
2018-08-30T14:45:25.382Z,23.30
2018-08-30T14:47:53.947Z,23.50
2018-08-30T14:50:22.409Z,23.80
2018-08-30T14:52:50.909Z,24.00
2018-08-30T14:55:19.616Z,23.70
2018-08-30T14:57:48.065Z,23.40
2018-08-30T15:00:16.650Z,23.30
2018-08-30T15:02:45.032Z,23.30
2018-08-30T15:05:13.617Z,23.20
2018-08-30T15:07:42.236Z,23.20
2018-08-30T15:10:10.873Z,23.20
2018-08-30T15:12:39.597Z,23.60
2018-08-30T15:15:08.118Z,23.60
2018-08-30T15:17:36.682Z,23.90
2018-08-30T15:20:05.369Z,23.80
2018-08-30T15:22:33.876Z,23.90
2018-08-30T15:25:02.436Z,23.60
2018-08-30T15:27:30.931Z,23.40
2018-08-30T15:29:59.524Z,23.60
2018-08-30T15:32:28.038Z,23.70
2018-08-30T15:34:56.541Z,23.40
2018-08-30T15:37:25.059Z,23.30
2018-08-30T15:39:53.578Z,23.40
2018-08-30T15:42:22.160Z,23.40
2018-08-30T15:44:50.591Z,23.30
2018-08-30T15:47:19.166Z,23.40
2018-08-30T15:49:47.642Z,23.20
2018-08-30T15:52:16.166Z,23.20
2018-08-30T15:54:44.661Z,23.10
2018-08-30T15:57:13.210Z,23.00
2018-08-30T15:59:41.768Z,22.90
2018-08-30T16:02:10.404Z,22.70
2018-08-30T16:04:38.928Z,22.60
2018-08-30T16:07:07.491Z,22.70
2018-08-30T16:09:36.043Z,22.80
2018-08-30T16:12:04.608Z,22.70
2018-08-30T16:14:33.218Z,22.70
2018-08-30T16:17:01.735Z,22.30
2018-08-30T16:19:30.328Z,22.40
2018-08-30T16:21:58.854Z,22.60
2018-08-30T16:24:27.468Z,22.70
2018-08-30T16:26:56.091Z,22.40
2018-08-30T16:29:24.717Z,22.50
2018-08-30T16:31:53.193Z,22.20
2018-08-30T16:34:21.725Z,22.00
2018-08-30T16:36:50.276Z,21.90
2018-08-30T16:39:18.844Z,21.80
2018-08-30T16:41:47.319Z,21.70
2018-08-30T16:44:15.909Z,21.80
2018-08-30T16:46:44.497Z,21.90
2018-08-30T16:49:13.073Z,21.70
2018-08-30T16:51:41.617Z,21.80
2018-08-30T16:54:10.139Z,21.90
2018-08-30T16:56:38.721Z,21.70
2018-08-30T16:59:07.298Z,21.80
2018-08-30T17:01:35.874Z,21.90
2018-08-30T17:04:04.446Z,21.90
2018-08-30T17:06:33.031Z,21.70
2018-08-30T17:09:01.544Z,21.70
2018-08-30T17:11:30.060Z,21.60
2018-08-30T17:13:58.534Z,21.70
2018-08-30T17:16:27.066Z,21.70
2018-08-30T17:19:01.133Z,21.70
2018-08-30T17:21:30.653Z,21.50
2018-08-30T17:23:59.192Z,21.40
2018-08-30T17:26:27.696Z,21.40
2018-08-30T17:28:56.267Z,21.30
2018-08-30T17:31:24.879Z,21.30
2018-08-30T17:33:53.356Z,21.20
2018-08-30T17:36:21.991Z,21.20
2018-08-30T17:38:50.440Z,21.10
2018-08-30T17:41:18.927Z,21.00
2018-08-30T17:43:47.434Z,20.90
2018-08-30T17:46:15.920Z,20.80
2018-08-30T17:48:44.456Z,20.70
2018-08-30T17:51:13.007Z,20.60
2018-08-30T17:53:41.528Z,20.50
2018-08-30T17:56:10.168Z,20.50
2018-08-30T17:58:38.695Z,20.40
2018-08-30T18:01:07.665Z,20.40
2018-08-30T18:03:36.177Z,20.50
2018-08-30T18:06:04.663Z,20.40
2018-08-30T18:08:33.249Z,20.40
2018-08-30T18:11:01.692Z,20.40
2018-08-30T18:13:30.390Z,20.30
2018-08-30T18:15:58.930Z,20.30
2018-08-30T18:18:27.471Z,20.30
2018-08-30T18:20:56.001Z,20.20
2018-08-30T18:23:24.482Z,20.20
2018-08-30T18:25:52.986Z,20.00
2018-08-30T18:28:21.504Z,19.90
2018-08-30T18:30:50.046Z,19.90
2018-08-30T18:33:18.566Z,19.90
2018-08-30T18:35:47.071Z,19.90
2018-08-30T18:38:15.627Z,20.00
2018-08-30T18:40:44.196Z,19.90
2018-08-30T18:43:12.696Z,19.90
2018-08-30T18:45:41.219Z,19.90
2018-08-30T18:48:09.784Z,19.90
2018-08-30T18:50:38.292Z,19.70
2018-08-30T18:53:06.806Z,19.70
2018-08-30T18:55:35.315Z,19.70
2018-08-30T18:58:03.801Z,19.70
2018-08-30T19:00:32.314Z,19.50
2018-08-30T19:03:00.867Z,19.40
2018-08-30T19:05:29.345Z,19.30
2018-08-30T19:07:57.879Z,19.50
2018-08-30T19:10:26.429Z,19.40
2018-08-30T19:12:54.977Z,19.30
2018-08-30T19:15:29.164Z,19.20
2018-08-30T19:18:04.136Z,19.40
2018-08-30T19:20:32.741Z,19.50
2018-08-30T19:23:01.296Z,19.30
2018-08-30T19:25:30.401Z,19.20
2018-08-30T19:27:58.968Z,19.00
2018-08-30T19:30:29.036Z,18.90
2018-08-30T19:32:58.293Z,18.90
2018-08-30T19:35:32.071Z,18.90
2018-08-30T19:38:00.671Z,18.90
2018-08-30T19:40:34.595Z,18.60
2018-08-30T19:43:03.081Z,18.50
2018-08-30T19:45:31.613Z,18.50
2018-08-30T19:48:00.117Z,18.40
2018-08-30T19:50:29.474Z,18.30
2018-08-30T19:52:58.173Z,18.30
2018-08-30T19:55:26.897Z,18.10
2018-08-30T19:57:55.414Z,18.10
2018-08-30T20:00:24.339Z,18.10
2018-08-30T20:02:53.855Z,17.90
2018-08-30T20:05:22.571Z,17.80
2018-08-30T20:07:51.088Z,17.60
2018-08-30T20:10:19.673Z,17.60
2018-08-30T20:12:48.488Z,17.60
2018-08-30T20:15:17.060Z,17.60
2018-08-30T20:17:45.543Z,17.70
2018-08-30T20:20:13.997Z,17.60
2018-08-30T20:22:42.587Z,17.50
2018-08-30T20:25:11.099Z,17.40
2018-08-30T20:27:39.570Z,17.30
2018-08-30T20:30:08.129Z,17.30
2018-08-30T20:32:36.691Z,17.30
2018-08-30T20:35:05.375Z,17.30
2018-08-30T20:37:33.951Z,17.20
2018-08-30T20:40:02.434Z,17.10
2018-08-30T20:42:30.943Z,17.00
2018-08-30T20:44:59.435Z,17.00
2018-08-30T20:47:27.946Z,16.90
2018-08-30T20:49:56.430Z,17.00
2018-08-30T20:52:24.970Z,17.00
2018-08-30T20:54:53.488Z,17.00
2018-08-30T20:57:22.879Z,16.90
2018-08-30T20:59:51.393Z,16.70
2018-08-30T21:02:19.910Z,16.70
2018-08-30T21:04:48.396Z,16.60
2018-08-30T21:07:17.783Z,16.80
2018-08-30T21:09:46.564Z,16.80
2018-08-30T21:12:15.435Z,16.70
2018-08-30T21:14:43.921Z,16.70
2018-08-30T21:17:12.419Z,16.50
2018-08-30T21:19:41.155Z,16.50
2018-08-30T21:22:09.758Z,16.50
2018-08-30T21:24:38.235Z,16.40
2018-08-30T21:27:06.750Z,16.20
2018-08-30T21:29:35.227Z,16.20
2018-08-30T21:32:03.782Z,16.20
2018-08-30T21:34:32.275Z,16.20
2018-08-30T21:37:00.742Z,16.10
2018-08-30T21:39:29.195Z,16.20
2018-08-30T21:41:57.704Z,15.90
2018-08-30T21:44:26.192Z,15.80
2018-08-30T21:46:54.778Z,16.00
2018-08-30T21:49:23.310Z,15.90
2018-08-30T21:51:52.400Z,15.80
2018-08-30T21:54:20.873Z,16.00
2018-08-30T21:56:49.415Z,16.00
2018-08-30T21:59:17.860Z,15.90
2018-08-30T22:01:46.337Z,15.90
2018-08-30T22:04:14.846Z,15.80
2018-08-30T22:06:43.453Z,15.90
2018-08-30T22:09:12.982Z,16.00
2018-08-30T22:11:42.461Z,15.90
2018-08-30T22:14:11.178Z,15.80
2018-08-30T22:16:39.671Z,15.90
2018-08-30T22:19:08.222Z,15.90
2018-08-30T22:21:36.717Z,15.90
2018-08-30T22:24:05.316Z,16.00
2018-08-30T22:26:33.857Z,16.20
2018-08-30T22:29:02.359Z,16.20
2018-08-30T22:31:30.831Z,16.00
2018-08-30T22:33:59.355Z,15.80
2018-08-30T22:36:27.812Z,15.80
2018-08-30T22:38:56.310Z,15.50
2018-08-30T22:41:24.789Z,15.40
2018-08-30T22:43:53.270Z,15.40
2018-08-30T22:46:21.724Z,15.60
2018-08-30T22:48:50.205Z,15.70
2018-08-30T22:51:18.709Z,15.40
2018-08-30T22:53:47.201Z,15.30
2018-08-30T22:56:15.646Z,15.10
2018-08-30T22:58:44.260Z,15.10
2018-08-30T23:01:12.768Z,15.00
2018-08-30T23:03:41.239Z,14.90
2018-08-30T23:06:09.716Z,15.00
2018-08-30T23:08:38.190Z,15.00
2018-08-30T23:11:07.059Z,15.00
2018-08-30T23:13:35.623Z,15.30
2018-08-30T23:16:04.199Z,15.00
2018-08-30T23:18:32.682Z,14.90
2018-08-30T23:21:01.218Z,14.80
2018-08-30T23:23:29.721Z,14.80
2018-08-30T23:25:58.190Z,14.80
2018-08-30T23:28:26.786Z,14.80
2018-08-30T23:30:55.266Z,14.80
2018-08-30T23:33:24.034Z,14.70
2018-08-30T23:35:52.498Z,14.60
2018-08-30T23:38:21.035Z,14.60
2018-08-30T23:40:49.503Z,14.50
2018-08-30T23:43:17.970Z,14.50
2018-08-30T23:45:46.743Z,14.60
2018-08-30T23:48:15.255Z,14.70
2018-08-30T23:50:43.758Z,14.60
2018-08-30T23:53:12.229Z,14.40
2018-08-30T23:55:47.275Z,14.40
2018-08-30T23:58:27.034Z,14.40
